Main page
METAR-TAF:

METAR-TAF

Airports :

Prince Said Ibrahim International Airport

Moroni, Comoros

latitude: 11-32S, longitude: 043-16E, elevation: 29 m

Current weather observation

The report was made 20 minutes ago, at 04:00 UTC
Wind 9 kt from the East/Southeast
Temperature 26°C
Humidity 79%
Pressure 1015 hPa
Visibility 10 km or more
Scattered clouds at a height of 2000 ft
Broken clouds at a height of 3000 ft

METAR: FMCH 170400Z 12009KT 9999 SCT020 BKN030 26/22 Q1015 NOSIG

Time: 07:20 (04:20 UTC)

Forecast

The report was made 11 hours and 20 minutes ago, at 17:00 UTC
Forecast valid from 16 at 18 UTC to 17 at 24 UTC
Wind 3 kt from the East with gusts up to 13 kt
Visibility 10 km or more
Few clouds at a height of 2000 ft
Becoming
from 17 at 05 UTC to 17 at 07 UTC
Wind 12 kt from the West/Southwest
Becoming
from 17 at 15 UTC to 17 at 17 UTC
Wind 3 kt from the East

TAF: FMCH 161700Z 1618/1724 10003G13KT 9999 FEW020 BECMG 1705/1707 25012KT BECMG 1715/1717 08003KT

Weather observations and forecasts of more than 4000 airports (METAR and TAF reports).

The available stations are represented by yellow and red dots on the map.

Hover mouse over dot to see the name of the station.

Then click to see weather observations and forecasts.

To change the map : click on the green buttons with a black cross to zoom in, on the green button with a dash to zoom out, or on the green arrows for adjacent maps.


METAR-TAF: